Time;durP1;ratioP1;P1;durP2;ratioP2;P2;SDS_P1;SDS_P2;PMS_P1;PMS_P2;Temp;Humidity;BMP_temperature;BMP_pressure;BME280_temperature;BME280_humidity;BME280_pressure;Samples;Min_cycle;Max_cycle;Signal;HPM_P1;HPM_P2
2023/05/09 00:00:17;;;;;;;11.95;10.75;;;17.60;99.90;;;;;;2090870;28;20021;-72
2023/05/09 00:01:17;;;;;;;12.38;11.18;;;17.60;99.90;;;;;;2092382;28;20060;-72
2023/05/09 00:02:18;;;;;;;11.75;10.70;;;17.60;99.90;;;;;;2090187;28;20127;-72
2023/05/09 00:03:18;;;;;;;12.05;10.93;;;17.60;99.90;;;;;;2093231;28;20021;-72
2023/05/09 00:04:19;;;;;;;12.13;11.02;;;17.60;99.90;;;;;;2095297;28;20042;-72
2023/05/09 00:05:20;;;;;;;11.90;10.80;;;17.60;99.90;;;;;;2092780;28;20475;-72
2023/05/09 00:06:21;;;;;;;11.73;10.63;;;17.60;99.90;;;;;;2091580;28;20078;-72
2023/05/09 00:07:21;;;;;;;11.35;10.45;;;17.60;99.90;;;;;;2091261;28;20443;-72
2023/05/09 00:08:22;;;;;;;12.00;10.57;;;17.60;99.90;;;;;;2090972;28;20024;-72
2023/05/09 00:09:24;;;;;;;12.05;10.88;;;17.60;99.90;;;;;;2091799;28;20105;-72
2023/05/09 00:10:26;;;;;;;12.18;10.98;;;17.60;99.90;;;;;;2091871;28;20597;-72
2023/05/09 00:11:26;;;;;;;11.43;10.32;;;17.60;99.90;;;;;;2092634;28;20044;-72
2023/05/09 00:12:27;;;;;;;12.48;11.25;;;17.60;99.90;;;;;;2092914;28;20052;-72
2023/05/09 00:13:28;;;;;;;10.75;9.75;;;17.60;99.90;;;;;;2092839;28;20040;-72
2023/05/09 00:14:28;;;;;;;10.82;9.98;;;17.60;99.90;;;;;;2089227;28;20403;-72
2023/05/09 00:15:29;;;;;;;13.82;11.13;;;17.60;99.90;;;;;;2091926;28;20032;-72
2023/05/09 00:16:31;;;;;;;11.25;10.15;;;17.60;99.90;;;;;;2090168;28;20606;-72
2023/05/09 00:17:32;;;;;;;11.82;10.73;;;17.60;99.90;;;;;;2091548;28;20495;-72
2023/05/09 00:18:32;;;;;;;11.68;10.68;;;17.60;99.90;;;;;;2094902;28;20055;-72
2023/05/09 00:19:33;;;;;;;13.23;10.65;;;17.60;99.90;;;;;;2095664;28;20103;-72
2023/05/09 00:20:34;;;;;;;12.55;11.27;;;17.60;99.90;;;;;;2091895;28;20129;-72
2023/05/09 00:21:34;;;;;;;11.93;10.80;;;17.60;99.90;;;;;;2094589;28;20071;-72
2023/05/09 00:22:35;;;;;;;11.77;10.57;;;17.60;99.90;;;;;;2093481;28;20120;-72
2023/05/09 00:23:37;;;;;;;12.13;11.13;;;17.60;99.90;;;;;;2093186;28;20660;-72
2023/05/09 00:24:37;;;;;;;12.27;11.18;;;17.60;99.90;;;;;;2095879;28;20074;-72
2023/05/09 00:25:38;;;;;;;13.10;11.90;;;17.50;99.90;;;;;;2091916;28;20108;-72
2023/05/09 00:26:38;;;;;;;11.50;10.48;;;17.60;99.90;;;;;;2092653;28;20017;-72
2023/05/09 00:27:39;;;;;;;11.38;10.27;;;17.60;99.90;;;;;;2094582;28;20036;-72
2023/05/09 00:28:39;;;;;;;11.45;10.45;;;17.60;99.90;;;;;;2092389;28;20052;-72
2023/05/09 00:29:40;;;;;;;12.13;10.93;;;17.60;99.90;;;;;;2092820;28;20029;-72
2023/05/09 00:30:41;;;;;;;12.73;11.45;;;17.60;99.90;;;;;;2090987;28;20029;-72
2023/05/09 00:31:41;;;;;;;11.63;10.50;;;17.60;99.90;;;;;;2093246;28;20063;-72
2023/05/09 00:32:42;;;;;;;12.70;11.40;;;17.60;99.90;;;;;;2091368;28;20037;-72
2023/05/09 00:33:42;;;;;;;12.43;11.32;;;17.60;99.90;;;;;;2091464;28;20024;-72
2023/05/09 00:34:43;;;;;;;11.57;10.50;;;17.60;99.90;;;;;;2093720;28;20063;-72
2023/05/09 00:35:43;;;;;;;11.18;10.18;;;17.60;99.90;;;;;;2092573;28;20753;-72
2023/05/09 00:36:44;;;;;;;12.15;10.95;;;17.60;99.90;;;;;;2092348;28;20407;-72
2023/05/09 00:37:44;;;;;;;11.85;10.65;;;17.60;99.90;;;;;;2090769;28;20960;-72
2023/05/09 00:38:46;;;;;;;12.65;11.55;;;17.50;99.90;;;;;;2093525;28;20040;-72
2023/05/09 00:39:49;;;;;;;12.80;11.27;;;17.50;99.90;;;;;;2092627;28;20159;-72
2023/05/09 00:40:50;;;;;;;13.70;12.45;;;17.50;99.90;;;;;;2092739;28;20389;-72
2023/05/09 00:41:51;;;;;;;12.98;11.70;;;17.50;99.90;;;;;;2092948;28;20434;-72
2023/05/09 00:42:52;;;;;;;12.75;11.65;;;17.50;99.90;;;;;;2091021;28;20523;-72
2023/05/09 00:43:52;;;;;;;12.13;11.00;;;17.50;99.90;;;;;;2093148;28;20524;-72
2023/05/09 00:44:53;;;;;;;11.88;10.88;;;17.50;99.90;;;;;;2091457;28;20033;-72
2023/05/09 00:45:54;;;;;;;12.82;10.68;;;17.50;99.90;;;;;;2092388;28;20140;-72
2023/05/09 00:46:54;;;;;;;13.35;12.05;;;17.50;99.90;;;;;;2090653;28;20035;-72
2023/05/09 00:47:55;;;;;;;12.27;11.18;;;17.50;99.90;;;;;;2091955;28;20055;-72
2023/05/09 00:48:56;;;;;;;13.02;11.73;;;17.50;99.90;;;;;;2091521;28;20032;-72
2023/05/09 00:49:56;;;;;;;13.48;12.25;;;17.50;99.90;;;;;;2092097;28;20500;-72
2023/05/09 00:50:57;;;;;;;13.38;12.07;;;17.40;99.90;;;;;;2091573;28;20644;-72
2023/05/09 00:51:58;;;;;;;14.02;12.82;;;17.40;99.90;;;;;;2091257;28;20525;-72
2023/05/09 00:52:59;;;;;;;13.60;12.30;;;17.40;99.90;;;;;;2093517;28;20428;-72
2023/05/09 00:53:59;;;;;;;14.00;12.73;;;17.40;99.90;;;;;;2093272;28;20127;-72
2023/05/09 00:55:01;;;;;;;14.02;12.73;;;17.40;99.90;;;;;;2091817;28;20423;-72
2023/05/09 00:56:03;;;;;;;13.63;12.52;;;17.40;99.90;;;;;;2094705;28;20496;-72
2023/05/09 00:57:04;;;;;;;13.70;12.40;;;17.30;99.90;;;;;;2094947;28;20029;-72
2023/05/09 00:58:05;;;;;;;12.93;11.82;;;17.30;99.90;;;;;;2092452;28;20032;-72
2023/05/09 00:59:06;;;;;;;13.77;12.57;;;17.30;99.90;;;;;;2094973;28;20492;-72
2023/05/09 01:00:11;;;;;;;13.63;12.18;;;17.30;99.90;;;;;;2094405;28;20121;-72
2023/05/09 01:01:12;;;;;;;12.77;11.68;;;17.30;99.90;;;;;;2090559;28;20032;-72
2023/05/09 01:02:13;;;;;;;13.25;12.05;;;17.30;99.90;;;;;;2092200;28;20499;-72
2023/05/09 01:03:14;;;;;;;12.75;11.60;;;17.30;99.90;;;;;;2093545;28;20393;-72
2023/05/09 01:04:15;;;;;;;13.48;12.27;;;17.30;99.90;;;;;;2093249;28;20273;-72
2023/05/09 01:05:15;;;;;;;12.70;11.45;;;17.30;99.90;;;;;;2094728;28;20029;-72
2023/05/09 01:06:27;;;;;;;13.50;12.15;;;17.30;99.90;;;;;;2092458;28;20024;-72
2023/05/09 01:07:48;;;;;;;12.98;11.80;;;17.30;99.90;;;;;;2093152;28;20019;-72
2023/05/09 01:09:01;;;;;;;13.90;12.60;;;17.20;99.90;;;;;;2092767;28;20028;-72
2023/05/09 01:10:13;;;;;;;12.45;11.35;;;17.20;99.90;;;;;;2093580;28;20480;-72
2023/05/09 01:11:33;;;;;;;13.35;11.95;;;17.20;99.90;;;;;;2094273;28;20024;-72
2023/05/09 01:12:45;;;;;;;12.75;11.55;;;17.20;99.90;;;;;;2094279;28;20677;-72
2023/05/09 01:13:54;;;;;;;13.25;11.95;;;17.20;99.90;;;;;;2095262;28;20040;-72
2023/05/09 01:15:08;;;;;;;13.27;12.07;;;17.20;99.90;;;;;;2092744;28;20159;-72
2023/05/09 01:16:13;;;;;;;12.50;11.20;;;17.20;99.90;;;;;;2093424;28;20426;-72
2023/05/09 01:17:42;;;;;;;12.43;11.32;;;17.10;99.90;;;;;;2094735;28;20035;-72
2023/05/09 01:18:50;;;;;;;12.18;11.07;;;17.10;99.90;;;;;;2094568;28;20028;-72
2023/05/09 01:20:28;;;;;;;11.38;10.27;;;17.10;99.90;;;;;;2093412;28;20036;-72
2023/05/09 01:21:32;;;;;;;11.95;10.85;;;17.10;99.90;;;;;;2092570;28;20071;-72
2023/05/09 01:22:36;;;;;;;14.00;12.60;;;17.10;99.90;;;;;;2093550;28;20028;-72
2023/05/09 01:23:45;;;;;;;13.05;11.75;;;17.10;99.90;;;;;;2093362;28;20380;-72
2023/05/09 01:25:24;;;;;;;12.50;11.38;;;17.10;99.90;;;;;;2093826;28;20024;-72
2023/05/09 01:26:28;;;;;;;12.57;11.50;;;17.10;99.90;;;;;;2093716;28;20420;-72
2023/05/09 01:27:57;;;;;;;16.13;11.73;;;17.00;99.90;;;;;;2094118;28;20472;-72
2023/05/09 01:29:19;;;;;;;13.80;11.55;;;17.00;99.90;;;;;;2094015;28;20029;-72
2023/05/09 01:30:19;;;;;;;13.15;11.98;;;17.00;99.90;;;;;;2090991;28;20024;-72
2023/05/09 01:31:21;;;;;;;12.43;11.25;;;17.00;99.90;;;;;;2094585;28;20063;-72
2023/05/09 01:32:25;;;;;;;12.60;11.07;;;17.00;99.90;;;;;;2095028;28;20054;-72
2023/05/09 01:33:27;;;;;;;13.35;12.05;;;17.00;99.90;;;;;;2095004;28;20086;-72
2023/05/09 01:34:31;;;;;;;12.52;11.32;;;17.00;99.90;;;;;;2092920;28;20953;-72
2023/05/09 01:35:35;;;;;;;14.07;12.52;;;17.00;99.90;;;;;;2091200;28;20025;-72
2023/05/09 01:36:39;;;;;;;12.93;11.70;;;17.00;99.90;;;;;;2093503;28;20024;-72
2023/05/09 01:37:42;;;;;;;12.82;11.63;;;17.00;99.90;;;;;;2098406;28;20028;-72
2023/05/09 01:38:44;;;;;;;14.95;13.40;;;17.00;99.90;;;;;;2091261;28;20020;-72
2023/05/09 01:39:48;;;;;;;14.10;12.80;;;17.00;99.90;;;;;;2095284;28;20047;-72
2023/05/09 01:40:52;;;;;;;14.45;13.05;;;17.00;99.90;;;;;;2093550;28;20017;-72
2023/05/09 01:41:56;;;;;;;13.60;12.40;;;17.00;99.90;;;;;;2093817;28;20081;-72
2023/05/09 01:43:05;;;;;;;13.70;12.45;;;16.90;99.90;;;;;;2092465;28;20707;-72
2023/05/09 01:44:09;;;;;;;14.32;12.93;;;16.90;99.90;;;;;;2092882;28;20032;-72
2023/05/09 01:45:11;;;;;;;13.43;12.23;;;16.90;99.90;;;;;;2091326;28;20017;-72
2023/05/09 01:46:13;;;;;;;13.73;12.32;;;16.90;99.90;;;;;;2093306;28;20033;-72
2023/05/09 01:47:15;;;;;;;13.75;12.57;;;16.90;99.90;;;;;;2096486;28;20032;-72
2023/05/09 01:48:17;;;;;;;13.00;11.73;;;16.90;99.90;;;;;;2096547;28;20360;-72
2023/05/09 01:49:19;;;;;;;13.75;12.35;;;16.90;99.90;;;;;;2095753;28;20017;-72
2023/05/09 01:50:21;;;;;;;20.20;13.02;;;16.90;99.90;;;;;;2093665;28;20134;-72
2023/05/09 01:51:24;;;;;;;13.98;12.77;;;16.90;99.90;;;;;;2093466;28;20032;-72
2023/05/09 01:52:25;;;;;;;15.68;12.50;;;16.90;99.90;;;;;;2094272;28;20036;-72
2023/05/09 01:53:28;;;;;;;13.52;12.20;;;16.90;99.90;;;;;;2092428;28;21580;-71
2023/05/09 01:54:30;;;;;;;14.55;12.80;;;16.90;99.90;;;;;;2094638;28;20024;-71
2023/05/09 01:55:34;;;;;;;14.32;13.13;;;16.90;99.90;;;;;;2091609;28;20037;-72
2023/05/09 01:56:35;;;;;;;14.70;13.30;;;16.90;99.90;;;;;;2093420;28;20029;-72
2023/05/09 01:57:37;;;;;;;13.60;12.38;;;16.80;99.90;;;;;;2092489;28;20025;-72
2023/05/09 01:58:38;;;;;;;13.73;12.52;;;16.90;99.90;;;;;;2092513;28;20044;-72
2023/05/09 01:59:43;;;;;;;14.15;12.95;;;16.80;99.90;;;;;;2091567;28;20020;-72
2023/05/09 02:00:46;;;;;;;14.23;12.93;;;16.80;99.90;;;;;;2090065;28;20028;-72
2023/05/09 02:01:47;;;;;;;14.68;12.63;;;16.90;99.90;;;;;;2091375;28;20028;-72
2023/05/09 02:02:49;;;;;;;15.40;12.43;;;16.80;99.90;;;;;;2090745;28;20027;-72
2023/05/09 02:03:53;;;;;;;13.60;12.40;;;16.90;99.90;;;;;;2093504;28;20029;-72
2023/05/09 02:04:56;;;;;;;15.15;13.35;;;16.80;99.90;;;;;;2094320;28;20028;-72
2023/05/09 02:05:57;;;;;;;14.32;13.05;;;16.80;99.90;;;;;;2092727;28;20021;-72
2023/05/09 02:06:58;;;;;;;15.63;14.02;;;16.80;99.90;;;;;;2096017;28;20017;-72
2023/05/09 02:07:59;;;;;;;14.63;13.43;;;16.80;99.90;;;;;;2095764;28;20028;-72
2023/05/09 02:09:01;;;;;;;15.43;13.93;;;16.80;99.90;;;;;;2091953;28;20040;-72
2023/05/09 02:10:03;;;;;;;13.45;12.15;;;16.80;99.90;;;;;;2091546;28;20070;-72
2023/05/09 02:11:04;;;;;;;14.90;13.60;;;16.80;99.90;;;;;;2093402;28;20067;-72
2023/05/09 02:12:05;;;;;;;14.13;12.73;;;16.90;99.90;;;;;;2091707;28;20071;-72
2023/05/09 02:13:06;;;;;;;14.50;13.18;;;16.80;99.90;;;;;;2094035;28;20029;-72
2023/05/09 02:14:06;;;;;;;13.82;12.65;;;16.80;99.90;;;;;;2092930;28;20104;-72
2023/05/09 02:15:07;;;;;;;14.13;12.93;;;16.90;99.90;;;;;;2091533;28;20024;-72
2023/05/09 02:16:09;;;;;;;15.13;12.60;;;16.90;99.90;;;;;;2091817;28;20841;-72
2023/05/09 02:17:10;;;;;;;13.98;12.68;;;16.90;99.90;;;;;;2091595;28;20051;-72
2023/05/09 02:18:11;;;;;;;14.73;13.13;;;16.90;99.90;;;;;;2095126;28;20392;-72
2023/05/09 02:19:12;;;;;;;15.05;13.65;;;16.90;99.90;;;;;;2094677;28;20616;-72
2023/05/09 02:20:13;;;;;;;14.38;13.07;;;16.90;99.90;;;;;;2093543;28;20059;-72
2023/05/09 02:21:13;;;;;;;13.95;12.70;;;16.90;99.90;;;;;;2090913;28;20017;-72
2023/05/09 02:22:14;;;;;;;13.98;12.65;;;16.90;99.90;;;;;;2093315;28;20444;-72
2023/05/09 02:23:15;;;;;;;14.05;12.65;;;16.90;99.90;;;;;;2092379;28;20047;-72
2023/05/09 02:24:15;;;;;;;14.50;12.82;;;16.90;99.90;;;;;;2094535;28;20554;-72
2023/05/09 02:25:17;;;;;;;13.38;12.18;;;16.90;99.90;;;;;;2092706;28;20031;-72
2023/05/09 02:26:18;;;;;;;13.98;12.65;;;16.90;99.90;;;;;;2093360;28;20028;-72
2023/05/09 02:27:20;;;;;;;13.45;12.25;;;16.90;99.90;;;;;;2094500;28;21031;-72
2023/05/09 02:28:24;;;;;;;14.70;13.40;;;16.90;99.90;;;;;;2091147;28;20559;-72
2023/05/09 02:29:38;;;;;;;14.73;13.25;;;16.90;99.90;;;;;;2093314;28;20024;-72
2023/05/09 02:30:43;;;;;;;15.15;13.75;;;16.90;99.90;;;;;;2093575;28;20025;-72
2023/05/09 02:31:44;;;;;;;14.55;13.25;;;16.90;99.90;;;;;;2092683;28;20024;-72
2023/05/09 02:32:47;;;;;;;15.23;13.68;;;16.90;99.90;;;;;;2091760;28;20040;-72
2023/05/09 02:33:48;;;;;;;15.27;13.52;;;16.90;99.90;;;;;;2093535;28;20517;-72
2023/05/09 02:34:52;;;;;;;14.85;13.20;;;16.90;99.90;;;;;;2094201;28;20035;-72
2023/05/09 02:35:53;;;;;;;14.77;13.27;;;16.90;99.90;;;;;;2093820;28;20115;-72
2023/05/09 02:36:54;;;;;;;13.48;12.27;;;16.80;99.90;;;;;;2093292;28;20029;-72
2023/05/09 02:37:57;;;;;;;14.95;13.57;;;16.80;99.90;;;;;;2092825;28;20143;-72
2023/05/09 02:38:59;;;;;;;15.25;13.80;;;16.80;99.90;;;;;;2095177;28;20636;-72
2023/05/09 02:40:00;;;;;;;14.07;12.82;;;16.80;99.90;;;;;;2091632;28;20043;-72
2023/05/09 02:41:00;;;;;;;14.65;13.35;;;16.80;99.90;;;;;;2093141;28;20021;-72
2023/05/09 02:42:09;;;;;;;14.38;12.98;;;16.80;99.90;;;;;;2091360;28;20037;-72
2023/05/09 02:43:10;;;;;;;14.20;13.00;;;16.90;99.90;;;;;;2092921;28;20102;-72
2023/05/09 02:44:10;;;;;;;14.80;13.30;;;16.80;99.90;;;;;;2091496;28;20025;-72
2023/05/09 02:45:11;;;;;;;14.23;12.88;;;16.80;99.90;;;;;;2093080;28;20028;-72
2023/05/09 02:46:11;;;;;;;13.55;12.07;;;16.80;99.90;;;;;;2094474;28;20025;-72
2023/05/09 02:47:12;;;;;;;14.13;12.82;;;16.80;99.90;;;;;;2092181;28;20020;-72
2023/05/09 02:48:13;;;;;;;14.27;13.05;;;16.80;99.90;;;;;;2092484;28;20095;-72
2023/05/09 02:49:13;;;;;;;14.63;13.32;;;16.80;99.90;;;;;;2092964;28;20048;-72
2023/05/09 02:50:14;;;;;;;14.40;13.20;;;16.90;99.90;;;;;;2091331;28;20021;-72
2023/05/09 02:51:14;;;;;;;15.38;13.80;;;16.90;99.90;;;;;;2091664;28;20028;-72
2023/05/09 02:52:15;;;;;;;15.00;13.68;;;16.90;99.90;;;;;;2094814;28;20377;-72
2023/05/09 02:53:15;;;;;;;15.02;13.05;;;16.90;99.90;;;;;;2091624;28;20500;-72
2023/05/09 02:54:17;;;;;;;15.32;13.82;;;16.90;99.90;;;;;;2092818;28;20025;-72
2023/05/09 02:55:17;;;;;;;14.75;13.45;;;16.80;99.90;;;;;;2092927;28;20024;-72
2023/05/09 02:56:18;;;;;;;17.15;14.50;;;16.80;99.90;;;;;;2093053;28;20024;-72
2023/05/09 02:57:18;;;;;;;15.02;13.60;;;16.80;99.90;;;;;;2092129;28;20058;-72
2023/05/09 02:58:21;;;;;;;26.58;14.93;;;16.80;99.90;;;;;;2094034;28;20033;-72
2023/05/09 02:59:22;;;;;;;15.52;14.02;;;16.80;99.90;;;;;;2090985;28;20107;-72
2023/05/09 03:00:24;;;;;;;15.27;13.88;;;16.80;99.90;;;;;;2090407;28;20021;-72
2023/05/09 03:01:25;;;;;;;17.38;15.63;;;16.90;99.90;;;;;;2093192;28;20028;-72
2023/05/09 03:02:25;;;;;;;16.20;14.70;;;16.80;99.90;;;;;;2091308;28;20506;-72
2023/05/09 03:03:26;;;;;;;15.88;14.25;;;16.80;99.90;;;;;;2093817;28;20016;-72
2023/05/09 03:04:26;;;;;;;15.65;14.10;;;16.80;99.90;;;;;;2091841;28;20032;-72
2023/05/09 03:05:27;;;;;;;15.65;14.15;;;16.90;99.90;;;;;;2090433;28;20092;-72
2023/05/09 03:06:28;;;;;;;15.77;14.23;;;16.90;99.90;;;;;;2093425;28;20117;-72
2023/05/09 03:07:29;;;;;;;17.40;15.50;;;16.80;99.90;;;;;;2094037;28;20044;-72
2023/05/09 03:08:30;;;;;;;16.65;15.05;;;16.80;99.90;;;;;;2090644;28;20021;-72
2023/05/09 03:09:30;;;;;;;18.38;16.20;;;16.80;99.90;;;;;;2091179;28;20020;-72
2023/05/09 03:10:31;;;;;;;16.67;15.07;;;16.80;99.90;;;;;;2092127;28;20067;-72
2023/05/09 03:11:31;;;;;;;16.30;14.75;;;16.80;99.90;;;;;;2091883;28;20029;-72
2023/05/09 03:12:32;;;;;;;16.48;14.93;;;16.80;99.90;;;;;;2092308;28;20656;-72
2023/05/09 03:13:32;;;;;;;16.13;14.55;;;16.80;99.90;;;;;;2095326;28;20032;-72
2023/05/09 03:14:33;;;;;;;15.80;14.10;;;16.80;99.90;;;;;;2092951;28;20024;-72
2023/05/09 03:15:33;;;;;;;16.35;14.75;;;16.80;99.90;;;;;;2093791;28;20039;-72
2023/05/09 03:16:34;;;;;;;17.83;16.02;;;16.90;99.90;;;;;;2092949;28;20040;-72
2023/05/09 03:17:35;;;;;;;16.88;15.18;;;16.80;99.90;;;;;;2095319;28;20024;-72
2023/05/09 03:18:35;;;;;;;17.65;16.05;;;16.80;99.90;;;;;;2091644;28;20116;-71
2023/05/09 03:19:36;;;;;;;17.50;15.90;;;16.80;99.90;;;;;;2092728;28;20065;-72
2023/05/09 03:20:36;;;;;;;17.15;15.38;;;16.80;99.90;;;;;;2092928;28;20028;-72
2023/05/09 03:21:37;;;;;;;16.67;15.15;;;16.80;99.90;;;;;;2094302;28;20527;-71
2023/05/09 03:22:37;;;;;;;16.23;14.73;;;16.80;99.90;;;;;;2095818;28;20119;-72
2023/05/09 03:23:38;;;;;;;17.17;15.63;;;16.80;99.90;;;;;;2095965;28;20050;-72
2023/05/09 03:24:39;;;;;;;19.83;16.35;;;16.80;99.90;;;;;;2091940;28;20039;-72
2023/05/09 03:25:39;;;;;;;19.65;17.55;;;16.80;99.90;;;;;;2093305;28;20027;-72
2023/05/09 03:26:40;;;;;;;17.60;15.93;;;16.80;99.90;;;;;;2094717;28;20839;-72
2023/05/09 03:27:40;;;;;;;17.38;15.77;;;16.80;99.90;;;;;;2094419;28;20024;-72
2023/05/09 03:28:41;;;;;;;18.52;15.65;;;16.80;99.90;;;;;;2094650;28;20035;-72
2023/05/09 03:29:41;;;;;;;16.98;15.38;;;16.90;99.90;;;;;;2095143;28;20021;-72
2023/05/09 03:30:42;;;;;;;17.95;15.90;;;16.80;99.90;;;;;;2094010;28;20032;-72
2023/05/09 03:31:42;;;;;;;18.08;16.35;;;16.80;99.90;;;;;;2091819;28;20025;-72
2023/05/09 03:32:43;;;;;;;18.00;16.27;;;16.80;99.90;;;;;;2092891;28;20021;-72
2023/05/09 03:33:43;;;;;;;19.35;17.45;;;16.80;99.90;;;;;;2095638;28;20026;-72
2023/05/09 03:34:45;;;;;;;19.27;16.70;;;16.80;99.90;;;;;;2094087;28;20036;-72
2023/05/09 03:35:45;;;;;;;18.92;17.02;;;16.90;99.90;;;;;;2097285;28;20075;-72
2023/05/09 03:36:46;;;;;;;19.40;17.50;;;16.90;99.90;;;;;;2093408;28;20040;-72
2023/05/09 03:37:46;;;;;;;18.13;16.25;;;16.90;99.90;;;;;;2092764;28;20025;-72
2023/05/09 03:38:47;;;;;;;17.65;15.95;;;16.90;99.90;;;;;;2093974;28;20154;-72
2023/05/09 03:39:47;;;;;;;21.20;16.02;;;16.90;99.90;;;;;;2091777;28;20034;-72
2023/05/09 03:40:48;;;;;;;17.95;16.33;;;16.80;99.90;;;;;;2092627;28;20480;-72
2023/05/09 03:41:49;;;;;;;18.42;16.60;;;16.90;99.90;;;;;;2092229;28;20075;-72
2023/05/09 03:42:49;;;;;;;18.23;16.42;;;16.90;99.90;;;;;;2092494;28;20029;-72
2023/05/09 03:43:50;;;;;;;19.33;17.27;;;16.90;99.90;;;;;;2094748;28;20024;-72
2023/05/09 03:44:51;;;;;;;19.05;17.15;;;16.90;99.90;;;;;;2094186;28;20112;-72
2023/05/09 03:45:52;;;;;;;18.80;17.00;;;16.90;99.90;;;;;;2094349;28;20062;-72
2023/05/09 03:46:52;;;;;;;18.75;16.95;;;16.90;99.90;;;;;;2092307;28;20028;-72
2023/05/09 03:47:53;;;;;;;18.50;16.70;;;16.90;99.90;;;;;;2093544;28;20059;-72
2023/05/09 03:48:54;;;;;;;17.52;15.85;;;16.90;99.90;;;;;;2092385;28;20478;-72
2023/05/09 03:49:54;;;;;;;17.13;15.63;;;16.90;99.90;;;;;;2091900;28;20028;-72
2023/05/09 03:50:55;;;;;;;18.17;16.38;;;16.90;99.90;;;;;;2092431;28;20036;-72
2023/05/09 03:51:55;;;;;;;19.08;17.17;;;16.90;99.90;;;;;;2093292;28;20078;-72
2023/05/09 03:52:56;;;;;;;18.63;16.80;;;16.90;99.90;;;;;;2091865;28;20043;-72
2023/05/09 03:53:57;;;;;;;18.15;16.45;;;16.90;99.90;;;;;;2090498;28;20044;-72
2023/05/09 03:54:57;;;;;;;17.73;16.02;;;16.90;99.90;;;;;;2089221;28;20024;-72
2023/05/09 03:55:58;;;;;;;18.85;17.10;;;16.90;99.90;;;;;;2091160;28;20032;-72
2023/05/09 03:56:58;;;;;;;18.05;16.25;;;16.90;99.90;;;;;;2091222;28;20460;-72
2023/05/09 03:57:59;;;;;;;19.38;15.73;;;17.00;99.90;;;;;;2092388;28;20024;-72
2023/05/09 03:58:59;;;;;;;18.27;16.52;;;17.00;99.90;;;;;;2091504;28;20040;-72
2023/05/09 04:00:00;;;;;;;17.08;15.48;;;17.00;99.90;;;;;;2090493;28;20047;-72
2023/05/09 04:01:01;;;;;;;16.52;15.05;;;17.00;99.90;;;;;;2090428;28;20727;-72
2023/05/09 04:02:02;;;;;;;17.08;15.45;;;17.00;99.90;;;;;;2090540;28;20032;-72
2023/05/09 04:03:03;;;;;;;18.10;16.23;;;17.00;99.90;;;;;;2092597;28;20570;-72
2023/05/09 04:04:04;;;;;;;17.55;15.82;;;17.00;99.90;;;;;;2092157;28;20070;-72
2023/05/09 04:05:04;;;;;;;18.75;16.83;;;17.00;99.90;;;;;;2092478;28;20048;-72
2023/05/09 04:06:05;;;;;;;19.15;17.45;;;17.00;99.90;;;;;;2093610;28;20549;-72
2023/05/09 04:07:06;;;;;;;18.13;16.20;;;17.00;99.90;;;;;;2091711;28;20026;-72
2023/05/09 04:08:06;;;;;;;19.13;17.33;;;17.00;99.90;;;;;;2091600;28;20091;-72
2023/05/09 04:09:08;;;;;;;17.92;16.13;;;17.00;99.90;;;;;;2094312;28;20388;-72
2023/05/09 04:10:09;;;;;;;18.00;16.33;;;17.10;99.90;;;;;;2093441;28;20802;-72
2023/05/09 04:11:09;;;;;;;18.50;16.70;;;17.10;99.90;;;;;;2091448;28;20085;-72
2023/05/09 04:12:10;;;;;;;18.75;16.98;;;17.10;99.90;;;;;;2094561;28;20059;-72
2023/05/09 04:13:10;;;;;;;19.50;17.60;;;17.10;99.90;;;;;;2094161;28;21162;-72
2023/05/09 04:14:11;;;;;;;20.38;17.10;;;17.10;99.90;;;;;;2095388;28;20497;-72
2023/05/09 04:15:11;;;;;;;18.85;17.05;;;17.10;99.90;;;;;;2091477;28;20081;-72
2023/05/09 04:16:12;;;;;;;18.50;16.63;;;17.10;99.90;;;;;;2092378;28;20032;-72
2023/05/09 04:17:13;;;;;;;19.13;17.20;;;17.10;99.90;;;;;;2092923;28;20134;-72
2023/05/09 04:18:13;;;;;;;26.58;17.50;;;17.00;99.90;;;;;;2091252;28;20032;-72
2023/05/09 04:19:14;;;;;;;17.88;16.15;;;17.10;99.90;;;;;;2093591;28;20529;-72
2023/05/09 04:20:14;;;;;;;19.30;17.52;;;17.10;99.90;;;;;;2091456;28;20113;-72
2023/05/09 04:21:15;;;;;;;19.83;17.75;;;17.10;99.90;;;;;;2093785;28;20035;-72
2023/05/09 04:22:16;;;;;;;18.67;16.88;;;17.10;99.90;;;;;;2093962;28;20025;-72
2023/05/09 04:23:16;;;;;;;18.00;16.30;;;17.00;99.90;;;;;;2092761;28;20525;-72
2023/05/09 04:24:17;;;;;;;19.67;16.23;;;17.10;99.90;;;;;;2093122;28;20039;-72
2023/05/09 04:25:19;;;;;;;17.55;15.93;;;17.00;99.90;;;;;;2095096;28;20028;-72
2023/05/09 04:26:21;;;;;;;18.67;16.77;;;17.00;99.90;;;;;;2092464;28;20461;-72
2023/05/09 04:27:22;;;;;;;18.30;16.48;;;17.10;99.90;;;;;;2092952;28;20103;-72
2023/05/09 04:28:23;;;;;;;18.52;16.83;;;17.10;99.90;;;;;;2092287;28;20051;-72
2023/05/09 04:29:23;;;;;;;18.65;16.77;;;17.10;99.90;;;;;;2091301;28;20025;-72
2023/05/09 04:30:25;;;;;;;17.48;15.75;;;17.10;99.90;;;;;;2094106;28;20029;-72
2023/05/09 04:31:26;;;;;;;19.17;17.15;;;17.10;99.90;;;;;;2093920;28;20050;-72
2023/05/09 04:32:26;;;;;;;19.48;17.63;;;17.10;99.90;;;;;;2095108;28;20024;-72
2023/05/09 04:33:27;;;;;;;18.92;17.00;;;17.20;99.90;;;;;;2093584;28;20058;-72
2023/05/09 04:34:28;;;;;;;18.08;16.42;;;17.10;99.90;;;;;;2097469;28;20421;-72
2023/05/09 04:35:29;;;;;;;19.80;17.90;;;17.10;99.90;;;;;;2096133;28;20039;-72
2023/05/09 04:36:32;;;;;;;17.92;15.70;;;17.20;99.90;;;;;;2095421;28;20055;-72
2023/05/09 04:37:33;;;;;;;18.98;17.15;;;17.20;99.90;;;;;;2097131;28;20100;-72
2023/05/09 04:38:34;;;;;;;18.63;16.73;;;17.20;99.90;;;;;;2095087;28;20066;-72
2023/05/09 04:39:34;;;;;;;18.92;17.08;;;17.20;99.90;;;;;;2094001;28;20522;-72
2023/05/09 04:40:35;;;;;;;18.55;16.63;;;17.20;99.90;;;;;;2093076;28;20025;-72
2023/05/09 04:41:35;;;;;;;18.17;16.48;;;17.20;99.90;;;;;;2095272;28;20040;-72
2023/05/09 04:42:37;;;;;;;20.00;17.02;;;17.20;99.90;;;;;;2095601;28;20036;-72
2023/05/09 04:43:38;;;;;;;17.48;15.88;;;17.20;99.90;;;;;;2092889;28;20081;-72
2023/05/09 04:44:38;;;;;;;18.80;16.92;;;17.20;99.90;;;;;;2090825;28;20029;-72
2023/05/09 04:45:39;;;;;;;18.52;16.75;;;17.20;99.90;;;;;;2093022;28;20075;-72
2023/05/09 04:46:40;;;;;;;18.63;16.85;;;17.20;99.90;;;;;;2095468;28;20519;-72
2023/05/09 04:47:40;;;;;;;18.08;16.38;;;17.20;99.90;;;;;;2093811;28;20024;-72
2023/05/09 04:48:41;;;;;;;19.42;17.48;;;17.30;99.90;;;;;;2092177;28;20106;-72
2023/05/09 04:49:41;;;;;;;18.88;16.98;;;17.30;99.90;;;;;;2095527;28;20033;-72
2023/05/09 04:50:42;;;;;;;18.40;16.45;;;17.30;99.90;;;;;;2092110;28;20070;-72
2023/05/09 04:51:42;;;;;;;19.20;17.35;;;17.30;99.90;;;;;;2096869;28;20073;-72
2023/05/09 04:52:43;;;;;;;19.52;17.45;;;17.30;99.90;;;;;;2095886;28;20036;-72
2023/05/09 04:53:44;;;;;;;18.58;16.67;;;17.30;99.90;;;;;;2093044;28;20641;-72
2023/05/09 04:54:44;;;;;;;18.85;17.00;;;17.30;99.90;;;;;;2094455;28;20035;-72
2023/05/09 04:55:45;;;;;;;18.08;16.25;;;17.30;99.90;;;;;;2095850;28;20024;-72
2023/05/09 04:56:45;;;;;;;17.98;16.17;;;17.30;99.90;;;;;;2094807;28;20055;-72
2023/05/09 04:57:46;;;;;;;18.98;17.17;;;17.30;99.90;;;;;;2093663;28;20044;-72
2023/05/09 04:58:47;;;;;;;20.02;17.95;;;17.30;99.90;;;;;;2094190;28;20059;-72
2023/05/09 04:59:48;;;;;;;18.95;17.13;;;17.30;99.90;;;;;;2093786;28;20029;-72
2023/05/09 05:00:50;;;;;;;20.98;17.67;;;17.30;99.90;;;;;;2092054;28;20039;-72
2023/05/09 05:01:50;;;;;;;18.48;16.67;;;17.40;99.90;;;;;;2092480;28;20032;-72
2023/05/09 05:02:51;;;;;;;20.35;18.02;;;17.30;99.90;;;;;;2094234;28;20123;-72
2023/05/09 05:03:51;;;;;;;18.98;17.00;;;17.30;99.90;;;;;;2094180;28;20473;-72
2023/05/09 05:04:52;;;;;;;19.35;17.35;;;17.40;99.90;;;;;;2094361;28;20121;-72
2023/05/09 05:05:52;;;;;;;19.17;17.30;;;17.40;99.90;;;;;;2093757;28;20032;-72
2023/05/09 05:06:53;;;;;;;20.90;18.70;;;17.40;99.90;;;;;;2094657;28;20024;-72
2023/05/09 05:07:54;;;;;;;19.83;16.80;;;17.40;99.90;;;;;;2095871;28;20383;-72
2023/05/09 05:08:54;;;;;;;19.40;17.02;;;17.40;99.90;;;;;;2093619;28;20384;-72
2023/05/09 05:09:55;;;;;;;18.00;16.20;;;17.40;99.90;;;;;;2094751;28;20025;-72
2023/05/09 05:10:56;;;;;;;18.40;16.80;;;17.40;99.90;;;;;;2094806;28;20024;-72
2023/05/09 05:11:56;;;;;;;17.90;16.20;;;17.40;99.90;;;;;;2093795;28;20059;-72
2023/05/09 05:12:57;;;;;;;18.38;16.67;;;17.40;99.90;;;;;;2094024;28;20744;-72
2023/05/09 05:13:57;;;;;;;19.25;17.33;;;17.40;99.90;;;;;;2095637;28;20096;-72
2023/05/09 05:14:58;;;;;;;18.45;16.70;;;17.40;99.90;;;;;;2094496;28;20100;-72